sensor_id;sensor_type;location;lat;lon;timestamp;P1;durP1;ratioP1;P2;durP2;ratioP2
72439;SDS011;60446;50.752;4.352;2023-04-15T00:01:00;7.97;;;2.50;;
72439;SDS011;60446;50.752;4.352;2023-04-15T00:03:27;7.38;;;2.75;;
72439;SDS011;60446;50.752;4.352;2023-04-15T00:05:56;8.70;;;2.20;;
72439;SDS011;60446;50.752;4.352;2023-04-15T00:08:24;8.18;;;2.60;;
72439;SDS011;60446;50.752;4.352;2023-04-15T00:10:51;7.90;;;2.03;;
72439;SDS011;60446;50.752;4.352;2023-04-15T00:13:18;5.90;;;2.10;;
72439;SDS011;60446;50.752;4.352;2023-04-15T00:15:46;7.50;;;2.28;;
72439;SDS011;60446;50.752;4.352;2023-04-15T00:18:13;8.95;;;2.45;;
72439;SDS011;60446;50.752;4.352;2023-04-15T00:20:40;6.97;;;2.47;;
72439;SDS011;60446;50.752;4.352;2023-04-15T00:23:07;9.27;;;1.95;;
72439;SDS011;60446;50.752;4.352;2023-04-15T00:25:34;7.67;;;2.23;;
72439;SDS011;60446;50.752;4.352;2023-04-15T00:28:01;6.68;;;2.53;;
72439;SDS011;60446;50.752;4.352;2023-04-15T00:30:29;7.45;;;2.20;;
72439;SDS011;60446;50.752;4.352;2023-04-15T00:32:57;7.43;;;2.55;;
72439;SDS011;60446;50.752;4.352;2023-04-15T00:35:24;8.77;;;2.33;;
72439;SDS011;60446;50.752;4.352;2023-04-15T00:37:51;7.80;;;3.00;;
72439;SDS011;60446;50.752;4.352;2023-04-15T00:40:20;8.02;;;2.25;;
72439;SDS011;60446;50.752;4.352;2023-04-15T00:42:50;7.03;;;2.55;;
72439;SDS011;60446;50.752;4.352;2023-04-15T00:45:17;7.85;;;2.35;;
72439;SDS011;60446;50.752;4.352;2023-04-15T00:47:45;7.70;;;3.03;;
72439;SDS011;60446;50.752;4.352;2023-04-15T00:50:12;8.10;;;2.70;;
72439;SDS011;60446;50.752;4.352;2023-04-15T00:52:39;7.22;;;2.67;;
72439;SDS011;60446;50.752;4.352;2023-04-15T00:55:07;7.10;;;2.45;;
72439;SDS011;60446;50.752;4.352;2023-04-15T00:57:35;8.02;;;2.47;;
72439;SDS011;60446;50.752;4.352;2023-04-15T01:00:03;7.30;;;2.50;;
72439;SDS011;60446;50.752;4.352;2023-04-15T01:02:37;8.97;;;2.90;;
72439;SDS011;60446;50.752;4.352;2023-04-15T01:05:05;6.20;;;2.38;;
72439;SDS011;60446;50.752;4.352;2023-04-15T01:07:33;7.68;;;2.45;;
72439;SDS011;60446;50.752;4.352;2023-04-15T01:10:02;6.28;;;2.50;;
72439;SDS011;60446;50.752;4.352;2023-04-15T01:12:31;8.18;;;2.60;;
72439;SDS011;60446;50.752;4.352;2023-04-15T01:14:59;10.27;;;2.90;;
72439;SDS011;60446;50.752;4.352;2023-04-15T01:17:27;8.98;;;2.85;;
72439;SDS011;60446;50.752;4.352;2023-04-15T01:19:55;8.05;;;2.70;;
72439;SDS011;60446;50.752;4.352;2023-04-15T01:22:26;8.05;;;2.47;;
72439;SDS011;60446;50.752;4.352;2023-04-15T01:24:54;9.27;;;2.80;;
72439;SDS011;60446;50.752;4.352;2023-04-15T01:27:30;7.90;;;2.90;;
72439;SDS011;60446;50.752;4.352;2023-04-15T01:29:57;8.45;;;2.88;;
72439;SDS011;60446;50.752;4.352;2023-04-15T01:32:24;8.70;;;2.60;;
72439;SDS011;60446;50.752;4.352;2023-04-15T01:34:52;7.70;;;2.10;;
72439;SDS011;60446;50.752;4.352;2023-04-15T01:37:22;5.65;;;2.33;;
72439;SDS011;60446;50.752;4.352;2023-04-15T01:39:50;6.47;;;2.17;;
72439;SDS011;60446;50.752;4.352;2023-04-15T01:42:17;6.72;;;2.60;;
72439;SDS011;60446;50.752;4.352;2023-04-15T01:44:44;6.57;;;2.15;;
72439;SDS011;60446;50.752;4.352;2023-04-15T01:47:11;6.53;;;2.38;;
72439;SDS011;60446;50.752;4.352;2023-04-15T01:49:40;7.80;;;2.65;;
72439;SDS011;60446;50.752;4.352;2023-04-15T01:52:07;6.93;;;2.63;;
72439;SDS011;60446;50.752;4.352;2023-04-15T01:54:34;7.13;;;2.33;;
72439;SDS011;60446;50.752;4.352;2023-04-15T01:57:01;6.93;;;2.55;;
72439;SDS011;60446;50.752;4.352;2023-04-15T01:59:29;11.98;;;2.80;;
72439;SDS011;60446;50.752;4.352;2023-04-15T02:01:57;8.45;;;2.72;;
72439;SDS011;60446;50.752;4.352;2023-04-15T02:04:26;7.77;;;2.63;;
72439;SDS011;60446;50.752;4.352;2023-04-15T02:06:53;7.63;;;2.63;;
72439;SDS011;60446;50.752;4.352;2023-04-15T02:09:20;7.60;;;3.15;;
72439;SDS011;60446;50.752;4.352;2023-04-15T02:11:48;9.98;;;2.67;;
72439;SDS011;60446;50.752;4.352;2023-04-15T02:14:16;7.85;;;2.67;;
72439;SDS011;60446;50.752;4.352;2023-04-15T02:16:43;7.63;;;2.60;;
72439;SDS011;60446;50.752;4.352;2023-04-15T02:19:13;9.80;;;3.08;;
72439;SDS011;60446;50.752;4.352;2023-04-15T02:21:40;8.00;;;2.78;;
72439;SDS011;60446;50.752;4.352;2023-04-15T02:24:08;8.13;;;2.85;;
72439;SDS011;60446;50.752;4.352;2023-04-15T02:26:35;8.35;;;2.72;;
72439;SDS011;60446;50.752;4.352;2023-04-15T02:29:02;9.23;;;3.13;;
72439;SDS011;60446;50.752;4.352;2023-04-15T02:31:29;8.10;;;2.70;;
72439;SDS011;60446;50.752;4.352;2023-04-15T02:33:59;6.70;;;2.45;;
72439;SDS011;60446;50.752;4.352;2023-04-15T02:36:30;10.30;;;2.95;;
72439;SDS011;60446;50.752;4.352;2023-04-15T02:38:57;7.65;;;2.83;;
72439;SDS011;60446;50.752;4.352;2023-04-15T02:41:26;7.73;;;2.63;;
72439;SDS011;60446;50.752;4.352;2023-04-15T02:43:55;8.85;;;2.55;;
72439;SDS011;60446;50.752;4.352;2023-04-15T02:46:22;8.88;;;2.80;;
72439;SDS011;60446;50.752;4.352;2023-04-15T02:48:50;10.77;;;3.13;;
72439;SDS011;60446;50.752;4.352;2023-04-15T02:51:20;9.07;;;2.55;;
72439;SDS011;60446;50.752;4.352;2023-04-15T02:53:48;7.90;;;2.37;;
72439;SDS011;60446;50.752;4.352;2023-04-15T02:56:16;6.45;;;2.45;;
72439;SDS011;60446;50.752;4.352;2023-04-15T02:58:45;6.50;;;1.73;;
72439;SDS011;60446;50.752;4.352;2023-04-15T03:01:12;6.97;;;2.10;;
72439;SDS011;60446;50.752;4.352;2023-04-15T03:03:40;9.00;;;2.20;;
72439;SDS011;60446;50.752;4.352;2023-04-15T03:06:07;5.27;;;1.97;;
72439;SDS011;60446;50.752;4.352;2023-04-15T03:08:35;6.50;;;2.25;;
72439;SDS011;60446;50.752;4.352;2023-04-15T03:11:03;8.55;;;2.15;;
72439;SDS011;60446;50.752;4.352;2023-04-15T03:13:32;11.85;;;2.60;;
72439;SDS011;60446;50.752;4.352;2023-04-15T03:16:05;7.60;;;2.35;;
72439;SDS011;60446;50.752;4.352;2023-04-15T03:18:33;6.70;;;2.07;;
72439;SDS011;60446;50.752;4.352;2023-04-15T03:21:01;6.43;;;1.80;;
72439;SDS011;60446;50.752;4.352;2023-04-15T03:23:32;7.00;;;2.08;;
72439;SDS011;60446;50.752;4.352;2023-04-15T03:26:01;8.43;;;2.38;;
72439;SDS011;60446;50.752;4.352;2023-04-15T03:28:30;6.32;;;2.00;;
72439;SDS011;60446;50.752;4.352;2023-04-15T03:30:58;8.23;;;2.00;;
72439;SDS011;60446;50.752;4.352;2023-04-15T03:33:26;6.35;;;2.08;;
72439;SDS011;60446;50.752;4.352;2023-04-15T03:35:53;7.20;;;1.95;;
72439;SDS011;60446;50.752;4.352;2023-04-15T03:38:20;6.38;;;1.92;;
72439;SDS011;60446;50.752;4.352;2023-04-15T03:40:48;6.22;;;2.22;;
72439;SDS011;60446;50.752;4.352;2023-04-15T03:43:15;8.03;;;2.10;;
72439;SDS011;60446;50.752;4.352;2023-04-15T03:45:42;7.88;;;2.35;;
72439;SDS011;60446;50.752;4.352;2023-04-15T03:48:09;9.18;;;2.75;;
72439;SDS011;60446;50.752;4.352;2023-04-15T03:50:43;8.55;;;2.97;;
72439;SDS011;60446;50.752;4.352;2023-04-15T03:53:11;10.38;;;3.42;;
72439;SDS011;60446;50.752;4.352;2023-04-15T03:55:38;16.23;;;3.73;;
72439;SDS011;60446;50.752;4.352;2023-04-15T03:58:05;14.15;;;4.35;;
72439;SDS011;60446;50.752;4.352;2023-04-15T04:00:32;15.38;;;3.83;;
72439;SDS011;60446;50.752;4.352;2023-04-15T04:02:59;14.05;;;4.25;;
72439;SDS011;60446;50.752;4.352;2023-04-15T04:05:27;14.98;;;5.15;;
72439;SDS011;60446;50.752;4.352;2023-04-15T04:07:54;16.73;;;4.77;;
72439;SDS011;60446;50.752;4.352;2023-04-15T04:10:21;17.83;;;5.95;;
72439;SDS011;60446;50.752;4.352;2023-04-15T04:12:48;18.92;;;5.40;;
72439;SDS011;60446;50.752;4.352;2023-04-15T04:15:15;18.10;;;5.65;;
72439;SDS011;60446;50.752;4.352;2023-04-15T04:17:42;19.38;;;5.88;;
72439;SDS011;60446;50.752;4.352;2023-04-15T04:20:10;17.17;;;5.77;;
72439;SDS011;60446;50.752;4.352;2023-04-15T04:22:37;18.85;;;5.85;;
72439;SDS011;60446;50.752;4.352;2023-04-15T04:25:06;19.75;;;6.57;;
72439;SDS011;60446;50.752;4.352;2023-04-15T04:27:35;19.27;;;6.07;;
72439;SDS011;60446;50.752;4.352;2023-04-15T04:30:03;19.38;;;5.85;;
72439;SDS011;60446;50.752;4.352;2023-04-15T04:32:32;24.73;;;6.00;;
72439;SDS011;60446;50.752;4.352;2023-04-15T04:34:59;14.93;;;5.72;;
72439;SDS011;60446;50.752;4.352;2023-04-15T04:37:26;16.92;;;5.47;;
72439;SDS011;60446;50.752;4.352;2023-04-15T04:39:53;18.50;;;5.80;;
72439;SDS011;60446;50.752;4.352;2023-04-15T04:42:20;15.98;;;6.40;;
72439;SDS011;60446;50.752;4.352;2023-04-15T04:44:48;17.30;;;5.50;;
72439;SDS011;60446;50.752;4.352;2023-04-15T04:47:15;18.15;;;6.50;;
72439;SDS011;60446;50.752;4.352;2023-04-15T04:49:42;18.92;;;6.40;;
72439;SDS011;60446;50.752;4.352;2023-04-15T04:52:09;18.15;;;5.65;;
72439;SDS011;60446;50.752;4.352;2023-04-15T04:54:36;15.25;;;5.47;;
72439;SDS011;60446;50.752;4.352;2023-04-15T04:57:04;16.33;;;5.70;;
72439;SDS011;60446;50.752;4.352;2023-04-15T04:59:33;15.35;;;6.05;;
72439;SDS011;60446;50.752;4.352;2023-04-15T05:02:00;13.40;;;5.95;;
72439;SDS011;60446;50.752;4.352;2023-04-15T05:04:28;13.57;;;5.65;;
72439;SDS011;60446;50.752;4.352;2023-04-15T05:06:57;13.65;;;5.90;;
72439;SDS011;60446;50.752;4.352;2023-04-15T05:09:25;16.47;;;5.93;;
72439;SDS011;60446;50.752;4.352;2023-04-15T05:11:52;15.25;;;6.13;;
72439;SDS011;60446;50.752;4.352;2023-04-15T05:14:19;15.32;;;5.47;;
72439;SDS011;60446;50.752;4.352;2023-04-15T05:16:48;14.35;;;5.68;;
72439;SDS011;60446;50.752;4.352;2023-04-15T05:19:15;14.82;;;5.68;;
72439;SDS011;60446;50.752;4.352;2023-04-15T05:21:42;16.50;;;6.37;;
72439;SDS011;60446;50.752;4.352;2023-04-15T05:24:10;17.10;;;5.50;;
72439;SDS011;60446;50.752;4.352;2023-04-15T05:26:37;15.05;;;6.13;;
72439;SDS011;60446;50.752;4.352;2023-04-15T05:29:04;14.00;;;5.43;;
72439;SDS011;60446;50.752;4.352;2023-04-15T05:31:31;18.35;;;6.38;;
72439;SDS011;60446;50.752;4.352;2023-04-15T05:33:58;19.07;;;6.43;;
72439;SDS011;60446;50.752;4.352;2023-04-15T05:36:25;13.27;;;5.55;;
72439;SDS011;60446;50.752;4.352;2023-04-15T05:38:53;14.00;;;5.78;;
72439;SDS011;60446;50.752;4.352;2023-04-15T05:41:21;12.82;;;6.47;;
72439;SDS011;60446;50.752;4.352;2023-04-15T05:43:48;16.98;;;6.47;;
72439;SDS011;60446;50.752;4.352;2023-04-15T05:46:15;18.10;;;6.40;;
72439;SDS011;60446;50.752;4.352;2023-04-15T05:48:42;16.02;;;5.97;;
72439;SDS011;60446;50.752;4.352;2023-04-15T05:51:09;14.18;;;5.38;;
72439;SDS011;60446;50.752;4.352;2023-04-15T05:53:37;16.98;;;6.28;;
72439;SDS011;60446;50.752;4.352;2023-04-15T05:56:04;18.23;;;6.05;;
72439;SDS011;60446;50.752;4.352;2023-04-15T05:58:31;17.20;;;6.63;;
72439;SDS011;60446;50.752;4.352;2023-04-15T06:00:58;20.00;;;6.80;;
72439;SDS011;60446;50.752;4.352;2023-04-15T06:03:26;16.58;;;6.22;;
72439;SDS011;60446;50.752;4.352;2023-04-15T06:05:53;15.35;;;5.93;;
72439;SDS011;60446;50.752;4.352;2023-04-15T06:08:21;14.02;;;5.22;;
72439;SDS011;60446;50.752;4.352;2023-04-15T06:10:48;15.17;;;4.93;;
72439;SDS011;60446;50.752;4.352;2023-04-15T06:13:15;14.90;;;5.57;;
72439;SDS011;60446;50.752;4.352;2023-04-15T06:15:42;14.77;;;5.65;;
72439;SDS011;60446;50.752;4.352;2023-04-15T06:18:09;13.90;;;4.75;;
72439;SDS011;60446;50.752;4.352;2023-04-15T06:20:37;12.73;;;5.40;;
72439;SDS011;60446;50.752;4.352;2023-04-15T06:23:06;11.80;;;5.03;;
72439;SDS011;60446;50.752;4.352;2023-04-15T06:25:33;11.88;;;4.63;;
72439;SDS011;60446;50.752;4.352;2023-04-15T06:28:00;12.05;;;5.43;;
72439;SDS011;60446;50.752;4.352;2023-04-15T06:30:27;11.85;;;5.03;;
72439;SDS011;60446;50.752;4.352;2023-04-15T06:32:54;10.48;;;4.15;;
72439;SDS011;60446;50.752;4.352;2023-04-15T06:35:22;13.23;;;4.77;;
72439;SDS011;60446;50.752;4.352;2023-04-15T06:37:49;11.55;;;4.13;;
72439;SDS011;60446;50.752;4.352;2023-04-15T06:40:17;13.18;;;4.95;;
72439;SDS011;60446;50.752;4.352;2023-04-15T06:42:44;11.40;;;4.60;;
72439;SDS011;60446;50.752;4.352;2023-04-15T06:45:11;12.10;;;5.18;;
72439;SDS011;60446;50.752;4.352;2023-04-15T06:47:38;12.23;;;4.70;;
72439;SDS011;60446;50.752;4.352;2023-04-15T06:50:06;12.18;;;4.93;;
72439;SDS011;60446;50.752;4.352;2023-04-15T06:52:34;11.93;;;4.32;;
72439;SDS011;60446;50.752;4.352;2023-04-15T06:55:01;10.60;;;4.35;;
72439;SDS011;60446;50.752;4.352;2023-04-15T06:57:29;12.00;;;5.07;;
72439;SDS011;60446;50.752;4.352;2023-04-15T06:59:59;14.90;;;5.07;;
72439;SDS011;60446;50.752;4.352;2023-04-15T07:02:26;10.70;;;4.50;;
72439;SDS011;60446;50.752;4.352;2023-04-15T07:04:54;10.77;;;4.88;;
72439;SDS011;60446;50.752;4.352;2023-04-15T07:07:22;10.45;;;4.47;;
72439;SDS011;60446;50.752;4.352;2023-04-15T07:09:49;12.65;;;5.40;;
72439;SDS011;60446;50.752;4.352;2023-04-15T07:12:17;12.27;;;4.73;;
72439;SDS011;60446;50.752;4.352;2023-04-15T07:14:44;11.70;;;4.20;;
72439;SDS011;60446;50.752;4.352;2023-04-15T07:17:11;12.60;;;4.72;;
72439;SDS011;60446;50.752;4.352;2023-04-15T07:19:38;16.23;;;5.20;;
72439;SDS011;60446;50.752;4.352;2023-04-15T07:22:05;11.32;;;4.82;;
72439;SDS011;60446;50.752;4.352;2023-04-15T07:24:33;12.43;;;5.37;;
72439;SDS011;60446;50.752;4.352;2023-04-15T07:27:00;10.55;;;4.50;;
72439;SDS011;60446;50.752;4.352;2023-04-15T07:29:27;9.05;;;4.28;;
72439;SDS011;60446;50.752;4.352;2023-04-15T07:31:54;10.43;;;4.07;;
72439;SDS011;60446;50.752;4.352;2023-04-15T07:34:22;12.30;;;4.10;;
72439;SDS011;60446;50.752;4.352;2023-04-15T07:36:49;9.70;;;4.00;;
72439;SDS011;60446;50.752;4.352;2023-04-15T07:39:17;10.18;;;4.35;;
72439;SDS011;60446;50.752;4.352;2023-04-15T07:41:45;9.35;;;3.80;;
72439;SDS011;60446;50.752;4.352;2023-04-15T07:44:12;9.35;;;3.28;;
72439;SDS011;60446;50.752;4.352;2023-04-15T07:46:40;9.60;;;3.67;;
72439;SDS011;60446;50.752;4.352;2023-04-15T07:49:08;9.27;;;3.70;;
72439;SDS011;60446;50.752;4.352;2023-04-15T07:51:35;12.52;;;4.35;;
72439;SDS011;60446;50.752;4.352;2023-04-15T07:54:02;8.98;;;3.17;;
72439;SDS011;60446;50.752;4.352;2023-04-15T07:56:30;9.98;;;3.33;;
72439;SDS011;60446;50.752;4.352;2023-04-15T07:58:58;7.68;;;3.30;;
72439;SDS011;60446;50.752;4.352;2023-04-15T08:01:28;9.33;;;3.33;;
72439;SDS011;60446;50.752;4.352;2023-04-15T08:03:57;10.77;;;3.65;;
72439;SDS011;60446;50.752;4.352;2023-04-15T08:06:26;8.90;;;3.72;;
72439;SDS011;60446;50.752;4.352;2023-04-15T08:08:54;13.63;;;4.75;;
72439;SDS011;60446;50.752;4.352;2023-04-15T08:11:21;14.65;;;4.30;;
72439;SDS011;60446;50.752;4.352;2023-04-15T08:13:50;13.50;;;4.70;;
72439;SDS011;60446;50.752;4.352;2023-04-15T08:16:21;14.95;;;4.75;;
72439;SDS011;60446;50.752;4.352;2023-04-15T08:18:50;16.90;;;5.63;;
72439;SDS011;60446;50.752;4.352;2023-04-15T08:21:19;13.15;;;5.20;;
72439;SDS011;60446;50.752;4.352;2023-04-15T08:23:47;17.00;;;5.50;;
72439;SDS011;60446;50.752;4.352;2023-04-15T08:26:17;13.87;;;5.83;;
72439;SDS011;60446;50.752;4.352;2023-04-15T08:28:46;14.63;;;5.85;;
72439;SDS011;60446;50.752;4.352;2023-04-15T08:31:15;10.80;;;5.00;;
72439;SDS011;60446;50.752;4.352;2023-04-15T08:33:47;12.63;;;4.65;;
72439;SDS011;60446;50.752;4.352;2023-04-15T08:36:20;11.07;;;4.70;;
72439;SDS011;60446;50.752;4.352;2023-04-15T08:38:59;11.47;;;5.13;;
72439;SDS011;60446;50.752;4.352;2023-04-15T08:41:33;14.40;;;4.72;;
72439;SDS011;60446;50.752;4.352;2023-04-15T08:44:07;12.77;;;4.78;;
72439;SDS011;60446;50.752;4.352;2023-04-15T08:46:36;11.07;;;4.78;;
72439;SDS011;60446;50.752;4.352;2023-04-15T08:49:05;10.40;;;4.68;;
72439;SDS011;60446;50.752;4.352;2023-04-15T08:51:36;15.43;;;5.53;;
72439;SDS011;60446;50.752;4.352;2023-04-15T08:54:05;13.02;;;5.20;;
72439;SDS011;60446;50.752;4.352;2023-04-15T08:56:39;12.10;;;5.28;;
72439;SDS011;60446;50.752;4.352;2023-04-15T08:59:07;15.60;;;5.68;;
72439;SDS011;60446;50.752;4.352;2023-04-15T09:01:36;13.00;;;5.18;;
72439;SDS011;60446;50.752;4.352;2023-04-15T09:04:04;15.37;;;5.90;;
72439;SDS011;60446;50.752;4.352;2023-04-15T09:06:34;17.70;;;5.80;;
72439;SDS011;60446;50.752;4.352;2023-04-15T09:09:01;15.05;;;6.22;;
72439;SDS011;60446;50.752;4.352;2023-04-15T09:11:29;13.23;;;5.45;;
72439;SDS011;60446;50.752;4.352;2023-04-15T09:13:56;13.73;;;6.28;;
72439;SDS011;60446;50.752;4.352;2023-04-15T09:16:24;16.57;;;6.23;;
72439;SDS011;60446;50.752;4.352;2023-04-15T09:18:52;12.43;;;6.10;;
72439;SDS011;60446;50.752;4.352;2023-04-15T09:21:21;15.30;;;5.65;;
72439;SDS011;60446;50.752;4.352;2023-04-15T09:23:54;17.40;;;6.55;;
72439;SDS011;60446;50.752;4.352;2023-04-15T09:26:34;11.93;;;5.82;;
72439;SDS011;60446;50.752;4.352;2023-04-15T09:29:04;15.17;;;6.53;;
72439;SDS011;60446;50.752;4.352;2023-04-15T09:31:39;14.95;;;6.20;;
72439;SDS011;60446;50.752;4.352;2023-04-15T09:34:08;14.90;;;6.43;;
72439;SDS011;60446;50.752;4.352;2023-04-15T09:39:15;13.25;;;6.40;;
72439;SDS011;60446;50.752;4.352;2023-04-15T09:41:43;15.17;;;5.73;;
72439;SDS011;60446;50.752;4.352;2023-04-15T09:44:22;14.85;;;5.90;;
72439;SDS011;60446;50.752;4.352;2023-04-15T09:46:51;11.68;;;4.85;;
72439;SDS011;60446;50.752;4.352;2023-04-15T09:49:21;12.23;;;5.05;;
72439;SDS011;60446;50.752;4.352;2023-04-15T09:51:48;10.77;;;4.75;;
72439;SDS011;60446;50.752;4.352;2023-04-15T09:54:37;9.73;;;4.00;;
72439;SDS011;60446;50.752;4.352;2023-04-15T09:57:07;10.57;;;3.65;;
72439;SDS011;60446;50.752;4.352;2023-04-15T09:59:46;11.77;;;3.80;;
72439;SDS011;60446;50.752;4.352;2023-04-15T10:02:17;11.27;;;4.38;;
72439;SDS011;60446;50.752;4.352;2023-04-15T10:04:54;10.45;;;4.07;;
72439;SDS011;60446;50.752;4.352;2023-04-15T10:08:02;10.60;;;3.93;;
72439;SDS011;60446;50.752;4.352;2023-04-15T10:10:36;10.80;;;3.88;;
72439;SDS011;60446;50.752;4.352;2023-04-15T10:13:04;9.98;;;4.13;;
72439;SDS011;60446;50.752;4.352;2023-04-15T10:15:44;8.68;;;3.50;;
72439;SDS011;60446;50.752;4.352;2023-04-15T10:18:27;13.48;;;4.63;;
72439;SDS011;60446;50.752;4.352;2023-04-15T10:21:06;11.33;;;4.07;;
72439;SDS011;60446;50.752;4.352;2023-04-15T10:23:38;12.63;;;4.35;;
72439;SDS011;60446;50.752;4.352;2023-04-15T10:26:14;13.05;;;5.80;;
72439;SDS011;60446;50.752;4.352;2023-04-15T10:28:47;8.80;;;3.85;;
72439;SDS011;60446;50.752;4.352;2023-04-15T10:31:17;9.48;;;4.45;;
72439;SDS011;60446;50.752;4.352;2023-04-15T10:33:50;12.93;;;4.87;;
72439;SDS011;60446;50.752;4.352;2023-04-15T10:36:19;11.13;;;4.43;;
72439;SDS011;60446;50.752;4.352;2023-04-15T10:38:46;9.65;;;3.60;;
72439;SDS011;60446;50.752;4.352;2023-04-15T10:41:22;8.45;;;3.53;;
72439;SDS011;60446;50.752;4.352;2023-04-15T10:44:03;9.15;;;3.15;;
72439;SDS011;60446;50.752;4.352;2023-04-15T10:46:40;8.43;;;3.13;;
72439;SDS011;60446;50.752;4.352;2023-04-15T10:49:14;8.27;;;2.45;;
72439;SDS011;60446;50.752;4.352;2023-04-15T10:51:52;6.88;;;2.38;;
72439;SDS011;60446;50.752;4.352;2023-04-15T10:57:07;6.63;;;2.17;;
72439;SDS011;60446;50.752;4.352;2023-04-15T11:02:37;7.45;;;3.00;;
72439;SDS011;60446;50.752;4.352;2023-04-15T11:08:18;8.27;;;2.90;;
72439;SDS011;60446;50.752;4.352;2023-04-15T11:10:53;7.10;;;2.78;;
72439;SDS011;60446;50.752;4.352;2023-04-15T11:13:21;7.87;;;2.70;;
72439;SDS011;60446;50.752;4.352;2023-04-15T11:15:55;7.78;;;2.88;;
72439;SDS011;60446;50.752;4.352;2023-04-15T11:18:37;7.40;;;2.55;;
72439;SDS011;60446;50.752;4.352;2023-04-15T11:21:09;9.00;;;2.53;;
72439;SDS011;60446;50.752;4.352;2023-04-15T11:23:37;7.80;;;2.13;;
72439;SDS011;60446;50.752;4.352;2023-04-15T11:26:14;7.50;;;2.57;;
72439;SDS011;60446;50.752;4.352;2023-04-15T11:28:44;7.00;;;2.22;;
72439;SDS011;60446;50.752;4.352;2023-04-15T11:31:15;5.60;;;1.67;;
72439;SDS011;60446;50.752;4.352;2023-04-15T11:33:56;7.00;;;2.10;;
72439;SDS011;60446;50.752;4.352;2023-04-15T11:36:29;4.10;;;1.08;;
72439;SDS011;60446;50.752;4.352;2023-04-15T11:39:21;5.07;;;1.40;;
72439;SDS011;60446;50.752;4.352;2023-04-15T11:41:51;4.38;;;1.20;;
72439;SDS011;60446;50.752;4.352;2023-04-15T11:44:20;4.15;;;1.23;;
72439;SDS011;60446;50.752;4.352;2023-04-15T11:46:51;4.00;;;1.30;;
72439;SDS011;60446;50.752;4.352;2023-04-15T11:49:29;6.78;;;1.88;;
72439;SDS011;60446;50.752;4.352;2023-04-15T11:52:09;4.97;;;1.80;;
72439;SDS011;60446;50.752;4.352;2023-04-15T11:54:39;6.72;;;2.13;;
72439;SDS011;60446;50.752;4.352;2023-04-15T11:57:07;6.18;;;1.90;;
72439;SDS011;60446;50.752;4.352;2023-04-15T11:59:41;5.97;;;1.83;;
72439;SDS011;60446;50.752;4.352;2023-04-15T12:02:14;6.63;;;2.03;;
72439;SDS011;60446;50.752;4.352;2023-04-15T12:04:42;5.87;;;1.50;;
72439;SDS011;60446;50.752;4.352;2023-04-15T12:07:18;6.68;;;2.35;;
72439;SDS011;60446;50.752;4.352;2023-04-15T12:09:53;5.82;;;2.00;;
72439;SDS011;60446;50.752;4.352;2023-04-15T12:12:27;6.13;;;1.60;;
72439;SDS011;60446;50.752;4.352;2023-04-15T12:14:57;3.72;;;1.02;;
72439;SDS011;60446;50.752;4.352;2023-04-15T12:17:25;4.20;;;1.27;;
72439;SDS011;60446;50.752;4.352;2023-04-15T12:19:55;5.72;;;1.92;;
72439;SDS011;60446;50.752;4.352;2023-04-15T12:22:23;4.95;;;1.38;;
72439;SDS011;60446;50.752;4.352;2023-04-15T12:24:53;5.30;;;1.75;;
72439;SDS011;60446;50.752;4.352;2023-04-15T12:27:24;6.55;;;1.60;;
72439;SDS011;60446;50.752;4.352;2023-04-15T12:30:02;5.97;;;1.67;;
72439;SDS011;60446;50.752;4.352;2023-04-15T12:32:36;6.13;;;1.58;;
72439;SDS011;60446;50.752;4.352;2023-04-15T12:35:08;6.10;;;1.65;;
72439;SDS011;60446;50.752;4.352;2023-04-15T12:37:35;6.40;;;1.98;;
72439;SDS011;60446;50.752;4.352;2023-04-15T12:40:07;6.38;;;1.60;;
72439;SDS011;60446;50.752;4.352;2023-04-15T12:42:36;4.80;;;1.50;;
72439;SDS011;60446;50.752;4.352;2023-04-15T12:45:09;5.90;;;1.95;;
72439;SDS011;60446;50.752;4.352;2023-04-15T12:47:40;6.05;;;2.15;;
72439;SDS011;60446;50.752;4.352;2023-04-15T12:50:15;8.40;;;2.20;;
72439;SDS011;60446;50.752;4.352;2023-04-15T12:52:44;7.25;;;1.92;;
72439;SDS011;60446;50.752;4.352;2023-04-15T12:55:14;5.57;;;1.83;;
72439;SDS011;60446;50.752;4.352;2023-04-15T12:57:47;4.80;;;1.50;;
72439;SDS011;60446;50.752;4.352;2023-04-15T13:00:17;5.75;;;1.33;;
72439;SDS011;60446;50.752;4.352;2023-04-15T13:02:49;4.10;;;1.25;;
72439;SDS011;60446;50.752;4.352;2023-04-15T13:05:16;7.35;;;1.42;;
72439;SDS011;60446;50.752;4.352;2023-04-15T13:07:46;4.87;;;1.40;;
72439;SDS011;60446;50.752;4.352;2023-04-15T13:10:18;4.90;;;1.42;;
72439;SDS011;60446;50.752;4.352;2023-04-15T13:12:50;6.55;;;1.33;;
72439;SDS011;60446;50.752;4.352;2023-04-15T13:15:22;4.70;;;1.35;;
72439;SDS011;60446;50.752;4.352;2023-04-15T13:17:57;6.20;;;1.30;;
72439;SDS011;60446;50.752;4.352;2023-04-15T13:20:25;5.90;;;1.60;;
72439;SDS011;60446;50.752;4.352;2023-04-15T13:22:53;5.15;;;1.27;;
72439;SDS011;60446;50.752;4.352;2023-04-15T13:25:21;5.40;;;1.65;;
72439;SDS011;60446;50.752;4.352;2023-04-15T13:27:52;4.90;;;1.17;;
72439;SDS011;60446;50.752;4.352;2023-04-15T13:30:19;7.15;;;1.77;;
72439;SDS011;60446;50.752;4.352;2023-04-15T13:32:53;4.23;;;1.30;;
72439;SDS011;60446;50.752;4.352;2023-04-15T13:35:23;6.90;;;1.80;;
72439;SDS011;60446;50.752;4.352;2023-04-15T13:37:57;8.95;;;1.63;;
72439;SDS011;60446;50.752;4.352;2023-04-15T13:40:24;6.22;;;1.70;;
72439;SDS011;60446;50.752;4.352;2023-04-15T13:42:54;6.70;;;1.77;;
72439;SDS011;60446;50.752;4.352;2023-04-15T13:45:23;6.47;;;2.20;;
72439;SDS011;60446;50.752;4.352;2023-04-15T13:47:50;7.22;;;2.20;;
72439;SDS011;60446;50.752;4.352;2023-04-15T13:50:24;7.35;;;1.98;;
72439;SDS011;60446;50.752;4.352;2023-04-15T13:52:56;7.93;;;1.70;;
72439;SDS011;60446;50.752;4.352;2023-04-15T13:55:27;5.70;;;2.10;;
72439;SDS011;60446;50.752;4.352;2023-04-15T13:57:55;4.93;;;1.90;;
72439;SDS011;60446;50.752;4.352;2023-04-15T14:00:26;5.88;;;1.70;;
72439;SDS011;60446;50.752;4.352;2023-04-15T14:03:01;6.47;;;1.50;;
72439;SDS011;60446;50.752;4.352;2023-04-15T14:05:38;5.10;;;1.48;;
72439;SDS011;60446;50.752;4.352;2023-04-15T14:08:10;5.35;;;1.63;;
72439;SDS011;60446;50.752;4.352;2023-04-15T14:10:43;6.77;;;1.50;;
72439;SDS011;60446;50.752;4.352;2023-04-15T14:13:21;6.45;;;1.63;;
72439;SDS011;60446;50.752;4.352;2023-04-15T14:15:55;6.25;;;1.48;;
72439;SDS011;60446;50.752;4.352;2023-04-15T14:18:33;8.00;;;1.67;;
72439;SDS011;60446;50.752;4.352;2023-04-15T14:21:04;4.32;;;1.20;;
72439;SDS011;60446;50.752;4.352;2023-04-15T14:23:36;6.10;;;1.20;;
72439;SDS011;60446;50.752;4.352;2023-04-15T14:26:18;4.35;;;1.20;;
72439;SDS011;60446;50.752;4.352;2023-04-15T14:28:49;4.35;;;1.10;;
72439;SDS011;60446;50.752;4.352;2023-04-15T14:31:19;5.30;;;1.65;;
72439;SDS011;60446;50.752;4.352;2023-04-15T14:33:51;6.50;;;1.30;;
72439;SDS011;60446;50.752;4.352;2023-04-15T14:36:30;6.50;;;1.80;;
72439;SDS011;60446;50.752;4.352;2023-04-15T14:38:57;6.10;;;2.03;;
72439;SDS011;60446;50.752;4.352;2023-04-15T14:41:25;6.82;;;2.58;;
72439;SDS011;60446;50.752;4.352;2023-04-15T14:44:03;8.00;;;1.83;;
72439;SDS011;60446;50.752;4.352;2023-04-15T14:46:40;6.07;;;1.70;;
72439;SDS011;60446;50.752;4.352;2023-04-15T14:49:11;6.20;;;1.40;;
72439;SDS011;60446;50.752;4.352;2023-04-15T14:51:38;5.03;;;1.48;;
72439;SDS011;60446;50.752;4.352;2023-04-15T14:54:12;4.47;;;1.08;;
72439;SDS011;60446;50.752;4.352;2023-04-15T14:56:45;3.92;;;0.82;;
72439;SDS011;60446;50.752;4.352;2023-04-15T14:59:15;3.83;;;1.15;;
72439;SDS011;60446;50.752;4.352;2023-04-15T15:01:48;3.53;;;0.70;;
72439;SDS011;60446;50.752;4.352;2023-04-15T15:04:20;3.15;;;0.90;;
72439;SDS011;60446;50.752;4.352;2023-04-15T15:06:51;5.68;;;1.20;;
72439;SDS011;60446;50.752;4.352;2023-04-15T15:09:27;5.13;;;1.23;;